createdAt,value
2019-03-03T00:00:17.226Z,10.12
2019-03-03T00:01:16.968Z,10.09
2019-03-03T00:02:17.216Z,10.1
2019-03-03T00:03:17.218Z,10.12
2019-03-03T00:04:16.721Z,10.09
2019-03-03T00:05:17.129Z,10.23
2019-03-03T00:06:16.950Z,10.12
2019-03-03T00:07:17.189Z,10.1
2019-03-03T00:08:16.969Z,10.19
2019-03-03T00:09:16.957Z,10.15
2019-03-03T00:10:17.379Z,10.13
2019-03-03T00:11:16.939Z,10.16
2019-03-03T00:12:16.920Z,10.09
2019-03-03T00:13:16.909Z,10.1
2019-03-03T00:14:16.906Z,10.09
2019-03-03T00:15:16.975Z,10.15
2019-03-03T00:16:16.891Z,10.16
2019-03-03T00:17:17.132Z,10.16
2019-03-03T00:18:17.135Z,10.09
2019-03-03T00:19:16.884Z,10.25
2019-03-03T00:20:17.180Z,10.13
2019-03-03T00:21:17.143Z,10.15
2019-03-03T00:22:16.847Z,10.16
2019-03-03T00:23:17.099Z,10.15
2019-03-03T00:24:16.893Z,10.15
2019-03-03T00:25:16.673Z,10.13
2019-03-03T00:26:17.091Z,10.16
2019-03-03T00:27:16.831Z,10.17
2019-03-03T00:28:17.076Z,10.1
2019-03-03T00:29:16.816Z,10.09
2019-03-03T00:30:17.158Z,10.1
2019-03-03T00:31:17.070Z,10.05
2019-03-03T00:32:17.050Z,10.07
2019-03-03T00:33:17.063Z,10.07
2019-03-03T00:34:16.543Z,10.05
2019-03-03T00:35:16.834Z,10.04
2019-03-03T00:36:17.031Z,10.09
2019-03-03T00:37:16.768Z,10.1
2019-03-03T00:38:16.822Z,10.1
2019-03-03T00:39:16.777Z,10.12
2019-03-03T00:40:16.838Z,10.09
2019-03-03T00:41:16.551Z,10.13
2019-03-03T00:42:16.845Z,10.22
2019-03-03T00:43:16.481Z,10.07
2019-03-03T00:44:17.034Z,10.16
2019-03-03T00:45:17.082Z,10.15
2019-03-03T00:46:16.990Z,10.22
2019-03-03T00:47:16.996Z,10.17
2019-03-03T00:48:16.970Z,10.23
2019-03-03T00:49:16.692Z,10.25
2019-03-03T00:50:16.773Z,10.16
2019-03-03T00:51:16.700Z,10.3
2019-03-03T00:52:19.015Z,10.28
2019-03-03T00:53:16.429Z,10.13
2019-03-03T00:54:16.432Z,10.17
2019-03-03T00:55:16.722Z,10.17
2019-03-03T00:56:16.684Z,10.25
2019-03-03T00:57:16.651Z,10.23
2019-03-03T00:58:16.905Z,10.19
2019-03-03T00:59:16.649Z,10.19
2019-03-03T01:00:17.032Z,10.2
2019-03-03T01:01:16.395Z,10.2
2019-03-03T01:02:16.898Z,10.17
2019-03-03T01:03:16.647Z,10.26
2019-03-03T01:04:16.941Z,10.16
2019-03-03T01:05:16.637Z,10.16
2019-03-03T01:06:16.852Z,10.17
2019-03-03T01:07:16.613Z,10.19
2019-03-03T01:08:16.626Z,10.22
2019-03-03T01:09:16.630Z,10.23
2019-03-03T01:10:16.872Z,10.16
2019-03-03T01:11:16.829Z,10.17
2019-03-03T01:12:16.581Z,10.17
2019-03-03T01:13:16.565Z,10.2
2019-03-03T01:14:16.823Z,10.19
2019-03-03T01:15:16.597Z,10.12
2019-03-03T01:16:16.803Z,10.15
2019-03-03T01:17:16.549Z,10.23
2019-03-03T01:18:16.804Z,10.2
2019-03-03T01:19:16.797Z,10.13
2019-03-03T01:20:16.553Z,10.16
2019-03-03T01:21:16.815Z,10.19
2019-03-03T01:22:16.274Z,10.15
2019-03-03T01:23:16.527Z,10.2
2019-03-03T01:24:16.259Z,10.05
2019-03-03T01:25:16.754Z,10.13
2019-03-03T01:26:16.748Z,10.13
2019-03-03T01:27:16.738Z,10.23
2019-03-03T01:28:16.484Z,10.12
2019-03-03T01:29:16.245Z,10.09
2019-03-03T01:30:16.481Z,10.13
2019-03-03T01:31:16.725Z,10.15
2019-03-03T01:32:16.528Z,10.09
2019-03-03T01:33:16.731Z,10.16
2019-03-03T01:34:17.441Z,10.09
2019-03-03T01:35:16.498Z,10.1
2019-03-03T01:36:16.454Z,10.13
2019-03-03T01:37:16.202Z,10.16
2019-03-03T01:38:16.428Z,10.09
2019-03-03T01:39:16.421Z,10.05
2019-03-03T01:40:16.738Z,10.09
2019-03-03T01:41:16.678Z,10.26
2019-03-03T01:42:16.417Z,10.12
2019-03-03T01:43:16.657Z,10.17
2019-03-03T01:44:16.403Z,10.19
2019-03-03T01:45:16.453Z,10.26
2019-03-03T01:46:16.644Z,10.22
2019-03-03T01:47:16.392Z,10.25
2019-03-03T01:48:16.143Z,10.31
2019-03-03T01:49:16.626Z,10.28
2019-03-03T01:50:16.676Z,10.3
2019-03-03T01:51:16.111Z,10.3
2019-03-03T01:52:16.112Z,10.28
2019-03-03T01:53:16.606Z,10.34
2019-03-03T01:54:16.596Z,10.23
2019-03-03T01:55:16.632Z,10.26
2019-03-03T01:56:16.346Z,10.26
2019-03-03T01:57:16.339Z,10.26
2019-03-03T01:58:16.337Z,10.3
2019-03-03T01:59:16.361Z,10.25
2019-03-03T02:00:16.585Z,10.25
2019-03-03T02:01:16.574Z,10.3
2019-03-03T02:02:16.563Z,10.22
2019-03-03T02:03:16.306Z,10.17
2019-03-03T02:04:16.447Z,10.28
2019-03-03T02:05:16.558Z,10.13
2019-03-03T02:06:16.039Z,10.25
2019-03-03T02:07:16.277Z,10.19
2019-03-03T02:08:16.545Z,10.19
2019-03-03T02:09:16.535Z,10.23
2019-03-03T02:10:16.282Z,10.19
2019-03-03T02:11:16.259Z,10.19
2019-03-03T02:12:16.490Z,10.26
2019-03-03T02:13:16.262Z,10.25
2019-03-03T02:14:16.245Z,10.25
2019-03-03T02:15:16.031Z,10.25
2019-03-03T02:16:16.239Z,10.26
2019-03-03T02:17:16.474Z,10.23
2019-03-03T02:18:16.465Z,10.3
2019-03-03T02:19:16.210Z,10.28
2019-03-03T02:20:16.250Z,10.26
2019-03-03T02:21:16.205Z,10.26
2019-03-03T02:22:16.449Z,10.26
2019-03-03T02:23:16.448Z,10.28
2019-03-03T02:24:16.251Z,10.31
2019-03-03T02:25:16.215Z,10.31
2019-03-03T02:26:16.438Z,10.37
2019-03-03T02:27:16.413Z,10.31
2019-03-03T02:28:16.169Z,10.31
2019-03-03T02:29:16.175Z,10.35
2019-03-03T02:30:16.471Z,10.4
2019-03-03T02:31:16.419Z,10.31
2019-03-03T02:32:16.159Z,10.3
2019-03-03T02:33:16.401Z,10.28
2019-03-03T02:34:16.955Z,10.35
2019-03-03T02:35:16.245Z,10.31
2019-03-03T02:36:16.387Z,10.33
2019-03-03T02:37:16.142Z,10.31
2019-03-03T02:38:16.397Z,10.31
2019-03-03T02:39:15.881Z,10.31
2019-03-03T02:40:16.541Z,10.28
2019-03-03T02:41:16.358Z,10.28
2019-03-03T02:42:16.366Z,10.26
2019-03-03T02:43:16.334Z,10.3
2019-03-03T02:44:16.356Z,10.25
2019-03-03T02:45:16.334Z,10.25
2019-03-03T02:46:16.349Z,10.2
2019-03-03T02:47:16.358Z,10.16
2019-03-03T02:48:16.365Z,10.16
2019-03-03T02:49:15.812Z,10.2
2019-03-03T02:50:16.161Z,10.23
2019-03-03T02:51:16.080Z,10.31
2019-03-03T02:52:16.051Z,10.26
2019-03-03T02:53:16.284Z,10.31
2019-03-03T02:54:16.052Z,10.28
2019-03-03T02:55:16.129Z,10.34
2019-03-03T02:56:16.261Z,10.26
2019-03-03T02:57:16.274Z,10.22
2019-03-03T02:58:16.038Z,10.2
2019-03-03T02:59:16.284Z,10.19
2019-03-03T03:00:16.324Z,10.15
2019-03-03T03:01:16.235Z,10.16
2019-03-03T03:02:16.233Z,10.19
2019-03-03T03:03:15.997Z,10.15
2019-03-03T03:04:16.240Z,10.13
2019-03-03T03:05:16.282Z,10.1
2019-03-03T03:06:16.221Z,10.19
2019-03-03T03:07:16.230Z,10.13
2019-03-03T03:08:16.206Z,10.17
2019-03-03T03:09:16.212Z,10.1
2019-03-03T03:10:16.201Z,10.09
2019-03-03T03:11:15.933Z,10.1
2019-03-03T03:12:16.180Z,10.1
2019-03-03T03:13:16.182Z,9.95
2019-03-03T03:14:16.176Z,9.98
2019-03-03T03:15:15.914Z,10.02
2019-03-03T03:16:15.905Z,9.87
2019-03-03T03:17:15.905Z,9.97
2019-03-03T03:18:15.895Z,9.94
2019-03-03T03:19:15.894Z,9.92
2019-03-03T03:20:16.212Z,9.97
2019-03-03T03:21:15.885Z,10.01
2019-03-03T03:22:16.133Z,9.94
2019-03-03T03:23:16.135Z,9.98
2019-03-03T03:24:16.183Z,10.04
2019-03-03T03:25:16.104Z,10.1
2019-03-03T03:26:15.891Z,10.05
2019-03-03T03:27:15.860Z,10.13
2019-03-03T03:28:16.114Z,10.12
2019-03-03T03:29:16.116Z,10.12
2019-03-03T03:30:16.179Z,10.1
2019-03-03T03:31:16.134Z,10.19
2019-03-03T03:32:15.854Z,10.15
2019-03-03T03:33:16.087Z,10.23
2019-03-03T03:34:16.078Z,10.09
2019-03-03T03:35:16.296Z,10.13
2019-03-03T03:36:16.098Z,10.15
2019-03-03T03:37:16.063Z,10.16
2019-03-03T03:38:16.031Z,10.16
2019-03-03T03:39:15.541Z,10.2
2019-03-03T03:40:16.089Z,10.09
2019-03-03T03:41:15.530Z,10.15
2019-03-03T03:42:16.009Z,10.07
2019-03-03T03:43:15.776Z,10.15
2019-03-03T03:44:15.764Z,10.09
2019-03-03T03:45:15.796Z,10.07
2019-03-03T03:46:15.761Z,10.05
2019-03-03T03:47:15.990Z,10.12
2019-03-03T03:48:15.727Z,10.01
2019-03-03T03:49:15.755Z,9.99
2019-03-03T03:50:16.026Z,9.98
2019-03-03T03:51:15.728Z,9.95
2019-03-03T03:52:15.979Z,9.95
2019-03-03T03:53:15.948Z,9.86
2019-03-03T03:54:15.952Z,9.8
2019-03-03T03:55:16.037Z,9.83
2019-03-03T03:56:15.944Z,9.76
2019-03-03T03:57:15.927Z,9.79
2019-03-03T03:58:15.925Z,9.74
2019-03-03T03:59:15.935Z,9.72
2019-03-03T04:00:15.917Z,9.73
2019-03-03T04:01:15.730Z,9.66
2019-03-03T04:02:15.904Z,9.66
2019-03-03T04:03:15.709Z,9.69
2019-03-03T04:04:15.682Z,9.64
2019-03-03T04:05:16.197Z,9.65
2019-03-03T04:06:15.923Z,9.65
2019-03-03T04:07:15.881Z,9.58
2019-03-03T04:08:15.865Z,9.55
2019-03-03T04:09:15.865Z,9.55
2019-03-03T04:10:15.635Z,9.58
2019-03-03T04:11:15.597Z,9.59
2019-03-03T04:12:15.854Z,9.54
2019-03-03T04:13:15.849Z,9.51
2019-03-03T04:14:15.829Z,9.58
2019-03-03T04:15:15.873Z,9.48
2019-03-03T04:16:15.611Z,9.41
2019-03-03T04:17:15.306Z,9.44
2019-03-03T04:18:15.802Z,9.5
2019-03-03T04:19:15.808Z,9.36
2019-03-03T04:20:15.550Z,9.48
2019-03-03T04:21:15.284Z,9.37
2019-03-03T04:22:15.537Z,9.43
2019-03-03T04:23:15.773Z,9.39
2019-03-03T04:24:15.518Z,9.34
2019-03-03T04:25:15.519Z,9.29
2019-03-03T04:26:15.806Z,9.28
2019-03-03T04:27:15.499Z,9.37
2019-03-03T04:28:15.748Z,9.32
2019-03-03T04:29:15.480Z,9.29
2019-03-03T04:30:15.291Z,9.29
2019-03-03T04:31:15.489Z,9.31
2019-03-03T04:32:15.454Z,9.18
2019-03-03T04:33:15.697Z,9.18
2019-03-03T04:34:17.446Z,9.29
2019-03-03T04:35:15.790Z,9.18
2019-03-03T04:36:15.438Z,9.22
2019-03-03T04:37:15.697Z,9.29
2019-03-03T04:38:15.690Z,9.23
2019-03-03T04:39:15.192Z,9.31
2019-03-03T04:40:15.736Z,9.23
2019-03-03T04:41:15.435Z,9.13
2019-03-03T04:42:15.413Z,9.26
2019-03-03T04:43:15.635Z,9.22
2019-03-03T04:44:15.644Z,9.23
2019-03-03T04:45:16.428Z,9.18
2019-03-03T04:46:15.384Z,9.13
2019-03-03T04:47:15.649Z,9.18
2019-03-03T04:48:15.370Z,9.22
2019-03-03T04:49:15.613Z,9.16
2019-03-03T04:50:15.682Z,9.21
2019-03-03T04:51:15.328Z,9.14
2019-03-03T04:52:15.575Z,9.13
2019-03-03T04:53:15.579Z,9.13
2019-03-03T04:54:15.576Z,9.06
2019-03-03T04:55:15.627Z,9.18
2019-03-03T04:56:15.562Z,9.22
2019-03-03T04:57:15.299Z,9.18
2019-03-03T04:58:15.557Z,9.11
2019-03-03T04:59:15.302Z,9.1
2019-03-03T05:00:15.547Z,9.06
2019-03-03T05:01:15.281Z,8.97
2019-03-03T05:02:15.524Z,9
2019-03-03T05:03:15.256Z,8.94
2019-03-03T05:04:15.257Z,9.02
2019-03-03T05:05:15.554Z,8.88
2019-03-03T05:06:15.491Z,8.87
2019-03-03T05:07:15.480Z,8.88
2019-03-03T05:08:15.479Z,8.94
2019-03-03T05:09:15.485Z,8.87
2019-03-03T05:10:15.457Z,8.84
2019-03-03T05:11:15.205Z,8.74
2019-03-03T05:12:15.198Z,8.67
2019-03-03T05:13:15.196Z,8.71
2019-03-03T05:14:15.428Z,8.67
2019-03-03T05:15:14.927Z,8.63
2019-03-03T05:16:15.176Z,8.58
2019-03-03T05:17:15.181Z,8.58
2019-03-03T05:18:15.406Z,8.58
2019-03-03T05:19:15.406Z,8.61
2019-03-03T05:20:15.147Z,8.55
2019-03-03T05:21:15.148Z,8.51
2019-03-03T05:22:15.136Z,8.58
2019-03-03T05:23:15.126Z,8.56
2019-03-03T05:24:15.123Z,8.52
2019-03-03T05:25:15.359Z,8.53
2019-03-03T05:26:14.856Z,8.6
2019-03-03T05:27:15.095Z,8.56
2019-03-03T05:28:15.090Z,8.58
2019-03-03T05:29:15.371Z,8.53
2019-03-03T05:30:15.107Z,8.42
2019-03-03T05:31:15.359Z,8.49
2019-03-03T05:32:14.835Z,8.46
2019-03-03T05:33:15.060Z,8.37
2019-03-03T05:34:15.312Z,8.42
2019-03-03T05:35:15.047Z,8.36
2019-03-03T05:36:15.046Z,8.37
2019-03-03T05:37:15.038Z,8.28
2019-03-03T05:38:15.295Z,8.36
2019-03-03T05:39:15.037Z,8.38
2019-03-03T05:40:15.014Z,8.3
2019-03-03T05:41:15.269Z,8.34
2019-03-03T05:42:14.997Z,8.19
2019-03-03T05:43:15.235Z,8.2
2019-03-03T05:44:14.980Z,8.24
2019-03-03T05:45:14.981Z,8.23
2019-03-03T05:46:15.212Z,8.16
2019-03-03T05:47:15.213Z,8.16
2019-03-03T05:48:15.197Z,8.18
2019-03-03T05:49:15.206Z,8.19
2019-03-03T05:50:14.700Z,8.19
2019-03-03T05:51:14.941Z,8.19
2019-03-03T05:52:14.919Z,8.18
2019-03-03T05:53:15.155Z,8.16
2019-03-03T05:54:15.159Z,8.16
2019-03-03T05:55:14.977Z,8.19
2019-03-03T05:56:14.666Z,8.06
2019-03-03T05:57:14.926Z,8.13
2019-03-03T05:58:15.142Z,8.16
2019-03-03T05:59:14.631Z,8.15
2019-03-03T06:00:15.188Z,8.05
2019-03-03T06:01:14.850Z,8.12
2019-03-03T06:02:14.866Z,8.03
2019-03-03T06:03:15.110Z,8.03
2019-03-03T06:04:14.863Z,8.13
2019-03-03T06:05:14.836Z,8.15
2019-03-03T06:06:15.385Z,8.16
2019-03-03T06:07:14.828Z,8.27
2019-03-03T06:08:14.809Z,8.1
2019-03-03T06:09:14.817Z,8.2
2019-03-03T06:10:15.101Z,8.24
2019-03-03T06:11:14.793Z,8.23
2019-03-03T06:12:15.024Z,8.33
2019-03-03T06:13:14.775Z,8.38
2019-03-03T06:14:15.033Z,8.42
2019-03-03T06:15:15.275Z,8.41
2019-03-03T06:16:14.491Z,8.45
2019-03-03T06:17:14.754Z,8.55
2019-03-03T06:18:14.733Z,8.55
2019-03-03T06:19:14.497Z,8.6
2019-03-03T06:20:14.776Z,8.55
2019-03-03T06:21:15.197Z,8.6
2019-03-03T06:22:14.701Z,8.55
2019-03-03T06:23:14.696Z,8.58
2019-03-03T06:24:14.693Z,8.55
2019-03-03T06:25:14.792Z,8.74
2019-03-03T06:26:14.665Z,8.7
2019-03-03T06:27:14.428Z,8.74
2019-03-03T06:28:14.654Z,8.74
2019-03-03T06:29:14.657Z,8.74
2019-03-03T06:30:14.725Z,8.74
2019-03-03T06:31:14.891Z,8.89
2019-03-03T06:32:14.642Z,8.89
2019-03-03T06:33:14.378Z,8.85
2019-03-03T06:34:14.611Z,8.85
2019-03-03T06:35:14.371Z,8.95
2019-03-03T06:36:15.472Z,8.89
2019-03-03T06:37:14.868Z,8.88
2019-03-03T06:38:14.576Z,8.81
2019-03-03T06:39:14.597Z,8.81
2019-03-03T06:40:14.826Z,8.81
2019-03-03T06:41:14.323Z,8.85
2019-03-03T06:42:14.564Z,8.81
2019-03-03T06:43:14.557Z,8.85
2019-03-03T06:44:14.549Z,8.91
2019-03-03T06:45:14.932Z,8.89
2019-03-03T06:46:14.299Z,8.92
2019-03-03T06:47:14.531Z,9.02
2019-03-03T06:48:14.269Z,9.04
2019-03-03T06:49:14.512Z,9.1
2019-03-03T06:50:14.769Z,9.13
2019-03-03T06:51:14.754Z,9.14
2019-03-03T06:52:14.499Z,9.19
2019-03-03T06:53:14.247Z,9.25
2019-03-03T06:54:14.485Z,9.29
2019-03-03T06:55:14.795Z,9.26
2019-03-03T06:56:14.467Z,9.31
2019-03-03T06:57:14.461Z,9.23
2019-03-03T06:58:14.210Z,9.26
2019-03-03T06:59:14.706Z,9.23
2019-03-03T07:00:15.059Z,9.25
2019-03-03T07:01:14.434Z,9.28
2019-03-03T07:02:14.698Z,9.25
2019-03-03T07:03:14.675Z,9.08
2019-03-03T07:04:14.422Z,9.13
2019-03-03T07:05:14.415Z,9.14
2019-03-03T07:06:14.301Z,9.06
2019-03-03T07:07:14.653Z,9.19
2019-03-03T07:08:14.640Z,9.21
2019-03-03T07:09:14.646Z,9.18
2019-03-03T07:10:14.723Z,9.14
2019-03-03T07:11:14.706Z,9.18
2019-03-03T07:12:14.617Z,9.19
2019-03-03T07:13:14.599Z,9.32
2019-03-03T07:14:14.366Z,9.32
2019-03-03T07:15:14.363Z,9.36
2019-03-03T07:16:14.344Z,9.44
2019-03-03T07:17:14.098Z,9.56
2019-03-03T07:18:14.592Z,9.56
2019-03-03T07:19:14.339Z,9.64
2019-03-03T07:20:14.178Z,9.77
2019-03-03T07:21:14.580Z,9.86
2019-03-03T07:22:14.305Z,9.94
2019-03-03T07:23:14.296Z,9.98
2019-03-03T07:24:14.563Z,10.01
2019-03-03T07:25:14.540Z,10.13
2019-03-03T07:26:14.055Z,9.95
2019-03-03T07:27:14.292Z,10.09
2019-03-03T07:28:14.533Z,10.15
2019-03-03T07:29:14.517Z,10.17
2019-03-03T07:30:14.354Z,10.1
2019-03-03T07:31:14.248Z,10.13
2019-03-03T07:32:14.249Z,10.13
2019-03-03T07:33:14.489Z,10.26
2019-03-03T07:34:14.238Z,10.23
2019-03-03T07:35:14.513Z,10.23
2019-03-03T07:36:14.037Z,10.31
2019-03-03T07:37:14.484Z,10.4
2019-03-03T07:38:14.467Z,10.48
2019-03-03T07:39:14.473Z,10.75
2019-03-03T07:40:14.486Z,11.25
2019-03-03T07:41:14.199Z,11.59
2019-03-03T07:42:13.973Z,12.21
2019-03-03T07:43:14.186Z,12.62
2019-03-03T07:44:14.002Z,13.05
2019-03-03T07:45:14.195Z,13.53
2019-03-03T07:46:13.939Z,13.7
2019-03-03T07:47:14.183Z,13.71
2019-03-03T07:48:14.424Z,13.74
2019-03-03T07:49:14.173Z,13.77
2019-03-03T07:50:14.448Z,13.85
2019-03-03T07:51:14.417Z,13.85
2019-03-03T07:52:13.916Z,13.75
2019-03-03T07:53:14.413Z,13.52
2019-03-03T07:54:14.418Z,13.44
2019-03-03T07:55:14.171Z,13.35
2019-03-03T07:56:14.418Z,13.2
2019-03-03T07:57:13.919Z,13.11
2019-03-03T07:58:14.169Z,12.97
2019-03-03T07:59:14.411Z,12.82
2019-03-03T08:00:14.514Z,12.68
2019-03-03T08:01:14.178Z,12.6
2019-03-03T08:02:14.397Z,12.45
2019-03-03T08:03:13.906Z,12.35
2019-03-03T08:04:14.132Z,12.39
2019-03-03T08:05:14.190Z,12.35
2019-03-03T08:06:14.177Z,12.21
2019-03-03T08:07:13.901Z,12.13
2019-03-03T08:08:14.386Z,12.13
2019-03-03T08:09:14.371Z,12.1
2019-03-03T08:10:14.118Z,11.97
2019-03-03T08:11:14.114Z,11.97
2019-03-03T08:12:14.362Z,11.87
2019-03-03T08:13:14.588Z,11.83
2019-03-03T08:14:14.357Z,11.95
2019-03-03T08:15:14.348Z,11.81
2019-03-03T08:16:15.505Z,11.84
2019-03-03T08:17:14.350Z,11.83
2019-03-03T08:18:14.336Z,11.7
2019-03-03T08:19:14.339Z,11.7
2019-03-03T08:20:14.093Z,11.69
2019-03-03T08:21:13.836Z,11.65
2019-03-03T08:22:14.332Z,11.57
2019-03-03T08:23:14.330Z,11.63
2019-03-03T08:24:14.074Z,11.69
2019-03-03T08:25:13.851Z,11.68
2019-03-03T08:26:14.068Z,11.73
2019-03-03T08:27:14.314Z,11.77
2019-03-03T08:28:14.062Z,11.75
2019-03-03T08:29:14.302Z,11.73
2019-03-03T08:30:14.058Z,11.7
2019-03-03T08:31:14.297Z,11.6
2019-03-03T08:32:14.058Z,11.62
2019-03-03T08:33:13.806Z,11.54
2019-03-03T08:34:14.051Z,11.59
2019-03-03T08:35:14.149Z,11.68
2019-03-03T08:36:14.527Z,11.77
2019-03-03T08:37:14.197Z,11.73
2019-03-03T08:38:14.264Z,11.77
2019-03-03T08:39:14.023Z,11.68
2019-03-03T08:40:14.041Z,11.77
2019-03-03T08:41:14.256Z,11.75
2019-03-03T08:42:14.008Z,11.8
2019-03-03T08:43:14.003Z,11.81
2019-03-03T08:44:14.239Z,11.77
2019-03-03T08:45:13.752Z,11.88
2019-03-03T08:46:14.246Z,11.84
2019-03-03T08:47:14.226Z,11.94
2019-03-03T08:48:14.240Z,11.97
2019-03-03T08:49:14.234Z,12.04
2019-03-03T08:50:13.739Z,11.99
2019-03-03T08:51:14.225Z,12.03
2019-03-03T08:52:14.220Z,12.02
2019-03-03T08:53:13.963Z,12.04
2019-03-03T08:54:13.957Z,12.04
2019-03-03T08:55:14.215Z,12.15
2019-03-03T08:56:13.957Z,12.12
2019-03-03T08:57:14.213Z,12.13
2019-03-03T08:58:13.956Z,12.17
2019-03-03T08:59:13.687Z,12.18
2019-03-03T09:00:14.206Z,12.18
2019-03-03T09:01:13.956Z,12.17
2019-03-03T09:02:14.761Z,12.25
2019-03-03T09:03:13.674Z,12.22
2019-03-03T09:04:13.931Z,12.21
2019-03-03T09:05:13.919Z,12.21
2019-03-03T09:06:14.170Z,12.25
2019-03-03T09:07:14.319Z,12.32
2019-03-03T09:08:13.905Z,12.31
2019-03-03T09:09:13.647Z,12.39
2019-03-03T09:10:13.943Z,12.37
2019-03-03T09:11:13.642Z,12.22
2019-03-03T09:12:14.496Z,12.45
2019-03-03T09:13:14.163Z,12.4
2019-03-03T09:14:13.642Z,12.42
2019-03-03T09:15:13.891Z,12.45
2019-03-03T09:16:13.891Z,12.49
2019-03-03T09:17:14.113Z,12.47
2019-03-03T09:18:13.897Z,12.49
2019-03-03T09:19:13.898Z,12.45
2019-03-03T09:20:13.867Z,12.49
2019-03-03T09:21:14.105Z,12.53
2019-03-03T09:22:13.862Z,12.57
2019-03-03T09:23:14.117Z,12.58
2019-03-03T09:24:13.844Z,12.55
2019-03-03T09:25:14.098Z,12.58
2019-03-03T09:26:14.086Z,12.57
2019-03-03T09:27:13.836Z,12.58
2019-03-03T09:28:14.081Z,12.57
2019-03-03T09:29:14.075Z,12.6
2019-03-03T09:30:13.833Z,12.58
2019-03-03T09:31:13.850Z,12.62
2019-03-03T09:32:14.062Z,12.64
2019-03-03T09:33:13.571Z,12.7
2019-03-03T09:34:13.814Z,12.7
2019-03-03T09:35:13.815Z,12.78
2019-03-03T09:36:14.047Z,12.78
2019-03-03T09:37:13.811Z,12.8
2019-03-03T09:38:13.810Z,12.9
2019-03-03T09:39:14.046Z,12.94
2019-03-03T09:40:14.477Z,13
2019-03-03T09:41:14.043Z,13.03
2019-03-03T09:42:14.042Z,13.05
2019-03-03T09:43:14.033Z,13.05
2019-03-03T09:44:15.336Z,12.97
2019-03-03T09:45:14.027Z,12.94
2019-03-03T09:46:13.795Z,12.93
2019-03-03T09:47:13.792Z,12.94
2019-03-03T09:48:14.016Z,13.01
2019-03-03T09:49:13.763Z,12.93
2019-03-03T09:50:13.759Z,13.08
2019-03-03T09:51:14.002Z,12.97
2019-03-03T09:52:14.024Z,12.91
2019-03-03T09:53:13.756Z,12.79
2019-03-03T09:54:14.003Z,12.91
2019-03-03T09:55:14.024Z,12.87
2019-03-03T09:56:13.743Z,12.94
2019-03-03T09:57:13.745Z,12.98
2019-03-03T09:58:13.998Z,13.05
2019-03-03T09:59:13.737Z,13.11
2019-03-03T10:00:13.738Z,13.01
2019-03-03T10:01:13.991Z,13.04
2019-03-03T10:02:13.978Z,13.05
2019-03-03T10:03:14.001Z,13.04
2019-03-03T10:04:13.731Z,13.08
2019-03-03T10:05:13.725Z,13.05
2019-03-03T10:06:13.728Z,13.11
2019-03-03T10:07:16.037Z,13.22
2019-03-03T10:08:18.017Z,13.16
2019-03-03T10:09:13.956Z,13.13
2019-03-03T10:10:13.962Z,13.23
2019-03-03T10:11:13.948Z,13.27
2019-03-03T10:12:13.456Z,13.38
2019-03-03T10:13:13.941Z,13.44
2019-03-03T10:14:13.695Z,13.52
2019-03-03T10:15:14.006Z,13.46
2019-03-03T10:16:13.692Z,13.5
2019-03-03T10:17:13.933Z,13.57
2019-03-03T10:18:13.925Z,13.57
2019-03-03T10:19:13.944Z,13.62
2019-03-03T10:20:13.933Z,13.52
2019-03-03T10:21:13.920Z,13.52
2019-03-03T10:22:13.921Z,13.57
2019-03-03T10:23:13.917Z,13.57
2019-03-03T10:24:13.677Z,13.65
2019-03-03T10:25:13.923Z,13.54
2019-03-03T10:26:13.909Z,13.67
2019-03-03T10:27:13.664Z,13.56
2019-03-03T10:28:13.665Z,13.62
2019-03-03T10:29:13.951Z,13.6
2019-03-03T10:30:13.653Z,13.6
2019-03-03T10:31:13.450Z,13.56
2019-03-03T10:32:13.906Z,13.5
2019-03-03T10:33:13.410Z,13.6
2019-03-03T10:34:13.650Z,13.56
2019-03-03T10:35:13.896Z,13.65
2019-03-03T10:36:13.640Z,13.68
2019-03-03T10:37:14.556Z,13.79
2019-03-03T10:38:14.134Z,13.81
2019-03-03T10:39:13.642Z,13.85
2019-03-03T10:40:13.629Z,13.86
2019-03-03T10:41:13.906Z,13.85
2019-03-03T10:42:13.631Z,13.86
2019-03-03T10:43:13.624Z,13.83
2019-03-03T10:44:13.636Z,13.83
2019-03-03T10:45:13.623Z,13.86
2019-03-03T10:46:13.877Z,13.77
2019-03-03T10:47:13.614Z,13.71
2019-03-03T10:48:13.621Z,13.56
2019-03-03T10:49:13.372Z,13.46
2019-03-03T10:50:13.870Z,13.41
2019-03-03T10:51:13.859Z,13.3
2019-03-03T10:52:13.607Z,13.27
2019-03-03T10:53:13.850Z,13.19
2019-03-03T10:54:13.612Z,13.16
2019-03-03T10:55:13.607Z,13.2
2019-03-03T10:56:13.839Z,13.03
2019-03-03T10:57:13.834Z,12.97
2019-03-03T10:58:13.860Z,12.94
2019-03-03T10:59:13.585Z,13.04
2019-03-03T11:00:13.585Z,12.8
2019-03-03T11:01:13.589Z,12.87
2019-03-03T11:02:13.827Z,12.94
2019-03-03T11:03:13.582Z,12.97
2019-03-03T11:04:13.581Z,12.94
2019-03-03T11:05:13.812Z,12.98
2019-03-03T11:06:13.562Z,13.01
2019-03-03T11:07:13.335Z,13.01
2019-03-03T11:08:15.023Z,13.03
2019-03-03T11:09:13.823Z,13.05
2019-03-03T11:10:13.561Z,13.13
2019-03-03T11:11:13.802Z,13.23
2019-03-03T11:12:13.811Z,13.18
2019-03-03T11:13:13.557Z,13.13
2019-03-03T11:14:13.919Z,13.41
2019-03-03T11:15:23.185Z,13.44
2019-03-03T11:16:13.557Z,13.54
2019-03-03T11:17:13.785Z,13.53
2019-03-03T11:18:14.121Z,13.56
2019-03-03T11:19:13.546Z,13.56
2019-03-03T11:20:13.294Z,13.7
2019-03-03T11:21:13.810Z,13.71
2019-03-03T11:22:13.525Z,13.68
2019-03-03T11:23:13.785Z,13.7
2019-03-03T11:24:13.567Z,13.56
2019-03-03T11:25:13.532Z,13.57
2019-03-03T11:26:13.761Z,13.72
2019-03-03T11:27:13.664Z,13.74
2019-03-03T11:28:23.331Z,13.79
2019-03-03T11:29:13.571Z,13.74
2019-03-03T11:30:13.792Z,13.78
2019-03-03T11:31:13.771Z,13.87
2019-03-03T11:32:13.771Z,13.85
2019-03-03T11:33:13.497Z,13.89
2019-03-03T11:34:13.753Z,13.97
2019-03-03T11:35:13.743Z,14.07
2019-03-03T11:36:13.748Z,14.04
2019-03-03T11:37:14.157Z,14.05
2019-03-03T11:38:13.730Z,14.1
2019-03-03T11:39:13.984Z,14.18
2019-03-03T11:40:13.764Z,14.3
2019-03-03T11:41:13.478Z,14.35
2019-03-03T11:42:13.481Z,14.32
2019-03-03T11:43:13.501Z,14.2
2019-03-03T11:44:13.240Z,14.32
2019-03-03T11:45:13.468Z,14.41
2019-03-03T11:46:13.728Z,14.5
2019-03-03T11:47:13.471Z,14.41
2019-03-03T11:48:13.216Z,14.41
2019-03-03T11:49:13.215Z,14.53
2019-03-03T11:50:13.473Z,14.35
2019-03-03T11:51:13.469Z,14.2
2019-03-03T11:52:13.469Z,14.22
2019-03-03T11:53:13.711Z,14.28
2019-03-03T11:54:13.692Z,14.22
2019-03-03T11:55:13.720Z,14.35
2019-03-03T11:56:13.473Z,14.41
2019-03-03T11:57:13.248Z,14.53
2019-03-03T11:58:13.714Z,14.54
2019-03-03T11:59:13.708Z,14.63
2019-03-03T12:00:14.577Z,14.79
2019-03-03T12:01:13.450Z,14.78
2019-03-03T12:02:13.445Z,14.65
2019-03-03T12:03:14.996Z,14.68
2019-03-03T12:04:13.191Z,14.54
2019-03-03T12:05:13.452Z,14.44
2019-03-03T12:06:13.674Z,14.32
2019-03-03T12:07:13.481Z,14.29
2019-03-03T12:08:13.438Z,14.18
2019-03-03T12:09:15.112Z,14.17
2019-03-03T12:10:13.209Z,14.1
2019-03-03T12:11:14.948Z,14.12
2019-03-03T12:12:13.420Z,14.11
2019-03-03T12:13:14.597Z,14.07
2019-03-03T12:14:13.422Z,13.96
2019-03-03T12:15:13.669Z,13.97
2019-03-03T12:16:13.669Z,14.03
2019-03-03T12:17:13.416Z,13.92
2019-03-03T12:18:13.421Z,13.89
2019-03-03T12:19:13.662Z,13.83
2019-03-03T12:20:13.421Z,13.79
2019-03-03T12:21:13.150Z,13.72
2019-03-03T12:22:13.650Z,13.67
2019-03-03T12:23:13.656Z,13.7
2019-03-03T12:24:13.406Z,13.79
2019-03-03T12:25:13.398Z,13.77
2019-03-03T12:26:13.641Z,13.87
2019-03-03T12:27:13.142Z,13.85
2019-03-03T12:28:13.391Z,13.81
2019-03-03T12:29:14.173Z,13.87
2019-03-03T12:30:13.380Z,13.83
2019-03-03T12:31:13.628Z,13.78
2019-03-03T12:32:13.139Z,13.71
2019-03-03T12:33:13.633Z,13.72
2019-03-03T12:34:13.634Z,13.74
2019-03-03T12:35:13.379Z,13.85
2019-03-03T12:36:13.623Z,13.78
2019-03-03T12:37:13.370Z,13.86
2019-03-03T12:38:13.376Z,13.87
2019-03-03T12:39:13.621Z,13.97
2019-03-03T12:40:13.629Z,14.11
2019-03-03T12:41:13.616Z,14.15
2019-03-03T12:42:13.615Z,14.2
2019-03-03T12:43:13.395Z,14.33
2019-03-03T12:44:13.351Z,14.3
2019-03-03T12:45:13.356Z,14.41
2019-03-03T12:46:13.612Z,14.37
2019-03-03T12:47:13.602Z,14.18
2019-03-03T12:48:13.603Z,14.18
2019-03-03T12:49:13.604Z,14.2
2019-03-03T12:50:13.335Z,14.17
2019-03-03T12:51:13.342Z,14.22
2019-03-03T12:52:13.591Z,14.23
2019-03-03T12:53:13.347Z,14.2
2019-03-03T12:54:13.328Z,14.23
2019-03-03T12:55:13.585Z,14.35
2019-03-03T12:56:13.332Z,14.4
2019-03-03T12:57:13.579Z,14.5
2019-03-03T12:58:13.393Z,14.58
2019-03-03T12:59:13.575Z,14.55
2019-03-03T13:00:13.725Z,14.68
2019-03-03T13:01:13.321Z,14.65
2019-03-03T13:02:13.330Z,14.82